메인 페이지
METAR-TAF:

METAR-TAF

공항 :

솔트레이크시티 국제공항

솔트레이크시티, 유타, 미국

위도: 40-46-41N, 경도: 111-58-10W, 고도: 1288m

현재 날씨관측

예보는 32분 전, 06:54시(UTC)에 발표되었습니다.
3kt
온도 12°C
습도 94%
기압 1010 hPa
시정: 16.1km
고도 4900ft 상공 구름 조금
고도 6000ft 상공 흐림
약한비

METAR: KSLC 210654Z 19003KT 10SM -RA FEW049 OVC060 12/11 A2983 RMK AO2 SLP061 P0002 T01220106 402440122 $

시각: 01:26 (07:26 UTC)

예보

예보는 1 시간 46분 전, 05:40시(UTC)에 발표되었습니다.
예보 대상 시간: 21일 06시부터 22일 12시까지 (UTC)
북동9kt
시정: 10km
고도 4500ft 상공 구름 보통
고도 6000ft 상공 흐림
약한소나기
21일 0900시부터 (UTC)
남동6kt
시정: 10km
고도 4500ft 상공 구름 보통
고도 8000ft 상공 구름 많음
시계 내 소나기
21일 1600시부터 (UTC)
북북서7kt
시정: 10km
고도 3000ft 상공 구름 보통
고도 5000ft 상공 흐림
약한소나기
21일 2200시부터 (UTC)
북북서9kt
시정: 9.7km
고도 2500ft 상공 구름 보통
고도 4000ft 상공 흐림
약한비, 박무
22일 0300시부터 (UTC)
5kt
시정: 10km
고도 3000ft 상공 구름 보통
고도 5000ft 상공 흐림
약한소나기
22일 0700시부터 (UTC)
5kt
시정: 10km
고도 4000ft 상공 구름 보통
고도 7000ft 상공 구름 많음

TAF: KSLC 210540Z 2106/2212 04009KT P6SM -SHRA SCT045 OVC060 FM210900 14006KT P6SM VCSH SCT045 BKN080 FM211600 33007KT P6SM -SHRA SCT030 OVC050 FM212200 33009KT 6SM -RA BR SCT025 OVC040 FM220300 35005KT P6SM -SHRA SCT030 OVC050 FM220700 35005KT P6SM SCT040 BKN070

4,000개 이상의 공항 관측 자료 및 예보 (METAR 및 TAF 보고).

지도상에서 검색 가능한 기상관측소가 노란 점과 빨간 점으로 표시되어 있습니다.

기상관측소 명을 보려면 표시 위로 마우스를 이동하세요.

날씨 관측과 예보를 보려면 클릭하세요.

지도 변경 : 확대하려면 엑스 표시가 있는 녹색 버튼, 축소하려면 빼기 표시가 있는 녹색 버튼, 다음 페이지의 지도를 보려면 녹색 화살표를 클릭하세요.


METAR-TAF: